createdAt,value
2023-04-18T00:01:06.446Z,25.13
2023-04-18T00:07:10.205Z,23.67
2023-04-18T00:13:13.606Z,24.42
2023-04-18T00:19:18.946Z,22.50
2023-04-18T00:25:22.369Z,23.00
2023-04-18T00:31:26.636Z,24.48
2023-04-18T00:37:31.736Z,23.77
2023-04-18T00:43:35.151Z,23.23
2023-04-18T00:49:38.644Z,22.23
2023-04-18T00:55:44.088Z,22.08
2023-04-18T01:01:47.930Z,21.70
2023-04-18T01:07:52.193Z,22.45
2023-04-18T01:14:03.805Z,21.00
2023-04-18T01:20:08.005Z,20.70
2023-04-18T01:26:13.375Z,20.45
2023-04-18T01:32:17.684Z,20.05
2023-04-18T01:38:21.081Z,19.00
2023-04-18T01:44:25.913Z,18.77
2023-04-18T01:50:29.513Z,18.65
2023-04-18T01:56:32.912Z,18.08
2023-04-18T02:02:37.949Z,18.13
2023-04-18T02:08:41.499Z,17.33
2023-04-18T02:14:45.180Z,17.80
2023-04-18T02:20:50.051Z,18.05
2023-04-18T02:26:53.487Z,17.38
2023-04-18T02:32:58.116Z,18.13
2023-04-18T02:39:03.621Z,16.70
2023-04-18T02:45:07.572Z,18.17
2023-04-18T02:51:11.304Z,18.10
2023-04-18T02:57:16.093Z,17.52
2023-04-18T03:03:19.642Z,18.40
2023-04-18T03:09:23.427Z,17.90
2023-04-18T03:15:28.342Z,18.65
2023-04-18T03:21:33.097Z,19.92
2023-04-18T03:27:36.480Z,19.70
2023-04-18T03:33:42.421Z,19.52
2023-04-18T03:39:45.882Z,20.73
2023-04-18T03:45:50.224Z,20.45
2023-04-18T03:51:57.840Z,21.55
2023-04-18T03:58:01.292Z,23.75
2023-04-18T04:04:04.994Z,22.70
2023-04-18T04:10:10.469Z,22.27
2023-04-18T04:16:14.046Z,25.30
2023-04-18T04:22:17.573Z,25.35
2023-04-18T04:28:23.960Z,23.23
2023-04-18T04:34:27.316Z,22.48
2023-04-18T04:40:30.731Z,21.92
2023-04-18T04:46:35.425Z,22.92
2023-04-18T04:52:40.225Z,25.58
2023-04-18T04:58:43.706Z,23.88
2023-04-18T05:04:49.179Z,22.42
2023-04-18T05:10:52.783Z,20.95
2023-04-18T05:16:57.377Z,19.70
2023-04-18T05:23:02.271Z,19.88
2023-04-18T05:29:05.782Z,19.35
2023-04-18T05:35:09.548Z,18.58
2023-04-18T05:41:14.284Z,18.88
2023-04-18T05:47:17.757Z,20.77
2023-04-18T05:53:21.396Z,19.40
2023-04-18T05:59:27.879Z,20.67
2023-04-18T06:05:32.065Z,19.33
2023-04-18T06:11:35.803Z,17.17
2023-04-18T06:17:41.296Z,16.35
2023-04-18T06:23:44.681Z,14.43
2023-04-18T06:29:48.145Z,13.60
2023-04-18T06:35:52.962Z,12.68
2023-04-18T06:41:56.580Z,11.77
2023-04-18T06:48:00.723Z,11.43
2023-04-18T06:54:05.672Z,11.25
2023-04-18T07:00:10.221Z,10.80
2023-04-18T07:06:13.855Z,10.07
2023-04-18T07:12:18.658Z,10.57
2023-04-18T07:18:34.358Z,11.20
2023-04-18T07:24:40.518Z,9.07
2023-04-18T07:30:45.309Z,9.07
2023-04-18T07:36:48.758Z,9.35
2023-04-18T07:42:52.142Z,9.35
2023-04-18T07:48:56.990Z,9.10
2023-04-18T07:55:00.393Z,8.27
2023-04-18T08:01:04.043Z,7.80
2023-04-18T08:07:08.956Z,7.97
2023-04-18T08:13:13.303Z,8.27
2023-04-18T08:19:16.863Z,7.72
2023-04-18T08:25:21.655Z,7.35
2023-04-18T08:31:25.284Z,7.50
2023-04-18T08:37:29.446Z,7.15
2023-04-18T08:43:34.370Z,6.57
2023-04-18T08:49:38.236Z,6.82
2023-04-18T08:55:42.109Z,7.45
2023-04-18T09:01:56.462Z,8.50
2023-04-18T09:08:00.211Z,9.32
2023-04-18T09:14:03.649Z,8.32
2023-04-18T09:20:10.749Z,8.50
2023-04-18T09:26:14.635Z,9.35
2023-04-18T09:32:24.066Z,9.50
2023-04-18T09:38:41.875Z,10.07
2023-04-18T09:45:03.630Z,10.45
2023-04-18T09:51:08.258Z,10.70
2023-04-18T09:57:13.764Z,10.63
2023-04-18T10:03:18.597Z,11.55
2023-04-18T10:09:23.103Z,15.15
2023-04-18T10:15:29.290Z,14.57
2023-04-18T10:21:32.781Z,16.38
2023-04-18T10:27:54.807Z,22.70
2023-04-18T10:34:05.089Z,20.65
2023-04-18T10:40:10.973Z,20.98
2023-04-18T10:46:27.887Z,20.63
2023-04-18T10:52:36.490Z,20.00
2023-04-18T10:58:40.787Z,18.33
2023-04-18T11:04:44.586Z,21.40
2023-04-18T11:10:58.717Z,23.10
2023-04-18T11:17:16.877Z,19.95
2023-04-18T11:23:22.985Z,19.63
2023-04-18T11:29:28.463Z,19.65
2023-04-18T11:35:31.994Z,23.08
2023-04-18T11:41:35.385Z,21.35
2023-04-18T11:47:41.948Z,18.88
2023-04-18T11:53:45.674Z,20.30
2023-04-18T11:59:52.412Z,20.13
2023-04-18T12:06:01.776Z,18.80
2023-04-18T12:12:06.416Z,19.08
2023-04-18T12:18:10.072Z,16.95
2023-04-18T12:24:19.006Z,15.95
2023-04-18T12:30:23.028Z,19.17
2023-04-18T12:36:28.473Z,15.18
2023-04-18T12:42:33.622Z,16.45
2023-04-18T12:48:37.005Z,16.67
2023-04-18T12:54:40.545Z,16.85
2023-04-18T13:00:45.444Z,23.00
2023-04-18T13:06:48.914Z,20.35
2023-04-18T13:12:53.280Z,17.52
2023-04-18T13:18:58.064Z,18.65
2023-04-18T13:25:01.571Z,19.00
2023-04-18T13:31:05.984Z,15.57
2023-04-18T13:37:10.826Z,15.70
2023-04-18T13:43:15.454Z,13.45
2023-04-18T13:49:19.321Z,14.55
2023-04-18T13:55:24.251Z,15.95
2023-04-18T14:01:27.735Z,15.68
2023-04-18T14:07:31.313Z,14.80
2023-04-18T14:13:36.331Z,14.52
2023-04-18T14:19:39.752Z,15.05
2023-04-18T14:25:43.255Z,16.58
2023-04-18T14:31:48.573Z,15.32
2023-04-18T14:37:52.126Z,14.10
2023-04-18T14:43:55.717Z,13.13
2023-04-18T14:50:00.512Z,13.13
2023-04-18T14:56:03.932Z,13.45
2023-04-18T15:02:07.434Z,12.60
2023-04-18T15:08:12.495Z,17.58
2023-04-18T15:14:16.203Z,13.80
2023-04-18T15:20:21.320Z,13.65
2023-04-18T15:26:28.041Z,12.35
2023-04-18T15:32:31.563Z,12.57
2023-04-18T15:38:34.978Z,10.95
2023-04-18T15:44:39.728Z,10.95
2023-04-18T15:50:43.420Z,11.52
2023-04-18T15:56:46.849Z,11.75
2023-04-18T16:02:51.983Z,12.52
2023-04-18T16:08:55.455Z,14.02
2023-04-18T16:14:58.845Z,13.90
2023-04-18T16:21:03.691Z,15.18
2023-04-18T16:27:07.209Z,16.77
2023-04-18T16:33:10.800Z,14.70
2023-04-18T16:39:16.572Z,16.25
2023-04-18T16:45:20.104Z,15.82
2023-04-18T16:51:23.625Z,14.73
2023-04-18T16:57:28.411Z,16.48
2023-04-18T17:03:32.208Z,15.40
2023-04-18T17:09:36.039Z,16.45
2023-04-18T17:15:40.924Z,16.85
2023-04-18T17:21:44.600Z,15.85
2023-04-18T17:27:48.062Z,15.48
2023-04-18T17:33:52.863Z,16.00
2023-04-18T17:39:57.796Z,15.23
2023-04-18T17:46:03.800Z,15.95
2023-04-18T17:52:11.814Z,15.18
2023-04-18T17:58:16.910Z,16.92
2023-04-18T18:04:22.377Z,19.17
2023-04-18T18:10:28.364Z,16.65
2023-04-18T18:16:31.912Z,19.42
2023-04-18T18:22:35.676Z,17.67
2023-04-18T18:28:40.481Z,17.60
2023-04-18T18:34:44.318Z,17.85
2023-04-18T18:40:47.822Z,17.85
2023-04-18T18:46:52.730Z,17.45
2023-04-18T18:52:56.391Z,17.92
2023-04-18T18:58:59.929Z,17.35
2023-04-18T19:05:04.885Z,18.75
2023-04-18T19:11:08.915Z,18.60
2023-04-18T19:17:12.452Z,17.38
2023-04-18T19:23:19.369Z,17.92
2023-04-18T19:29:24.167Z,17.95
2023-04-18T19:35:27.601Z,18.67
2023-04-18T19:41:32.394Z,18.80
2023-04-18T19:47:36.921Z,18.13
2023-04-18T19:53:40.784Z,18.13
2023-04-18T19:59:45.784Z,18.17
2023-04-18T20:05:49.192Z,19.13
2023-04-18T20:11:54.332Z,17.73
2023-04-18T20:17:59.346Z,18.15
2023-04-18T20:24:03.505Z,17.88
2023-04-18T20:30:08.828Z,18.52
2023-04-18T20:36:14.111Z,17.90
2023-04-18T20:42:17.866Z,18.55
2023-04-18T20:48:21.440Z,18.23
2023-04-18T20:54:26.347Z,18.48
2023-04-18T21:00:29.754Z,17.48
2023-04-18T21:06:33.235Z,18.23
2023-04-18T21:12:38.794Z,17.10
2023-04-18T21:18:42.163Z,19.27
2023-04-18T21:24:47.107Z,19.40
2023-04-18T21:30:51.902Z,18.98
2023-04-18T21:36:55.304Z,19.08
2023-04-18T21:42:58.764Z,19.55
2023-04-18T21:49:03.576Z,19.75
2023-04-18T21:55:07.494Z,18.88
2023-04-18T22:01:10.958Z,18.70
2023-04-18T22:07:18.566Z,19.50
2023-04-18T22:13:22.045Z,18.70
2023-04-18T22:19:25.453Z,18.90
2023-04-18T22:25:30.385Z,19.00
2023-04-18T22:31:34.073Z,19.27
2023-04-18T22:37:37.610Z,18.20
2023-04-18T22:43:42.399Z,18.52
2023-04-18T22:49:45.960Z,19.27
2023-04-18T22:55:49.347Z,18.23
2023-04-18T23:01:54.195Z,18.33
2023-04-18T23:08:00.097Z,18.17
2023-04-18T23:14:04.388Z,17.63
2023-04-18T23:20:10.937Z,17.85
2023-04-18T23:26:15.140Z,16.63
2023-04-18T23:32:18.585Z,18.63
2023-04-18T23:38:23.500Z,17.55
2023-04-18T23:44:26.879Z,17.55
2023-04-18T23:50:30.502Z,16.88
2023-04-18T23:56:35.633Z,17.25
